sensor_id;sensor_type;location;lat;lon;timestamp;P1;durP1;ratioP1;P2;durP2;ratioP2
53040;SDS011;39326;42.650;23.248;2023-03-23T00:00:37;11.83;;;10.33;;
53040;SDS011;39326;42.650;23.248;2023-03-23T00:03:02;10.23;;;9.23;;
53040;SDS011;39326;42.650;23.248;2023-03-23T00:05:28;9.23;;;8.43;;
53040;SDS011;39326;42.650;23.248;2023-03-23T00:07:54;7.07;;;6.47;;
53040;SDS011;39326;42.650;23.248;2023-03-23T00:10:21;7.53;;;6.93;;
53040;SDS011;39326;42.650;23.248;2023-03-23T00:12:46;7.13;;;6.53;;
53040;SDS011;39326;42.650;23.248;2023-03-23T00:15:14;6.57;;;5.97;;
53040;SDS011;39326;42.650;23.248;2023-03-23T00:17:41;7.03;;;6.37;;
53040;SDS011;39326;42.650;23.248;2023-03-23T00:20:08;7.03;;;6.33;;
53040;SDS011;39326;42.650;23.248;2023-03-23T00:22:36;6.63;;;6.03;;
53040;SDS011;39326;42.650;23.248;2023-03-23T00:25:03;6.57;;;6.00;;
53040;SDS011;39326;42.650;23.248;2023-03-23T00:27:30;6.90;;;6.33;;
53040;SDS011;39326;42.650;23.248;2023-03-23T00:29:55;7.80;;;7.07;;
53040;SDS011;39326;42.650;23.248;2023-03-23T00:32:22;7.07;;;6.40;;
53040;SDS011;39326;42.650;23.248;2023-03-23T00:34:52;6.70;;;6.13;;
53040;SDS011;39326;42.650;23.248;2023-03-23T00:37:18;6.43;;;5.83;;
53040;SDS011;39326;42.650;23.248;2023-03-23T00:39:44;6.67;;;6.07;;
53040;SDS011;39326;42.650;23.248;2023-03-23T00:42:12;5.97;;;5.37;;
53040;SDS011;39326;42.650;23.248;2023-03-23T00:44:40;6.67;;;6.07;;
53040;SDS011;39326;42.650;23.248;2023-03-23T00:47:05;6.57;;;6.07;;
53040;SDS011;39326;42.650;23.248;2023-03-23T00:49:34;7.03;;;6.33;;
53040;SDS011;39326;42.650;23.248;2023-03-23T00:52:00;6.97;;;6.37;;
53040;SDS011;39326;42.650;23.248;2023-03-23T00:54:27;7.20;;;6.60;;
53040;SDS011;39326;42.650;23.248;2023-03-23T00:56:52;7.53;;;6.83;;
53040;SDS011;39326;42.650;23.248;2023-03-23T00:59:18;7.23;;;6.60;;
53040;SDS011;39326;42.650;23.248;2023-03-23T01:01:44;8.93;;;6.90;;
53040;SDS011;39326;42.650;23.248;2023-03-23T01:04:10;8.03;;;7.40;;
53040;SDS011;39326;42.650;23.248;2023-03-23T01:06:38;9.63;;;8.67;;
53040;SDS011;39326;42.650;23.248;2023-03-23T01:09:12;10.23;;;9.33;;
53040;SDS011;39326;42.650;23.248;2023-03-23T01:11:45;10.80;;;9.80;;
53040;SDS011;39326;42.650;23.248;2023-03-23T01:14:12;10.73;;;9.73;;
53040;SDS011;39326;42.650;23.248;2023-03-23T01:16:39;10.50;;;9.50;;
53040;SDS011;39326;42.650;23.248;2023-03-23T01:19:05;10.93;;;9.83;;
53040;SDS011;39326;42.650;23.248;2023-03-23T01:21:30;10.57;;;9.47;;
53040;SDS011;39326;42.650;23.248;2023-03-23T01:23:56;12.60;;;11.37;;
53040;SDS011;39326;42.650;23.248;2023-03-23T01:26:23;13.07;;;11.87;;
53040;SDS011;39326;42.650;23.248;2023-03-23T01:28:50;15.07;;;13.50;;
53040;SDS011;39326;42.650;23.248;2023-03-23T01:31:20;14.93;;;13.53;;
53040;SDS011;39326;42.650;23.248;2023-03-23T01:33:47;15.53;;;14.03;;
53040;SDS011;39326;42.650;23.248;2023-03-23T01:36:19;16.90;;;15.30;;
53040;SDS011;39326;42.650;23.248;2023-03-23T01:38:48;17.63;;;15.97;;
53040;SDS011;39326;42.650;23.248;2023-03-23T01:41:14;17.73;;;16.03;;
53040;SDS011;39326;42.650;23.248;2023-03-23T01:44:00;19.57;;;17.67;;
53040;SDS011;39326;42.650;23.248;2023-03-23T01:46:29;18.17;;;16.37;;
53040;SDS011;39326;42.650;23.248;2023-03-23T01:48:58;16.53;;;14.83;;
53040;SDS011;39326;42.650;23.248;2023-03-23T01:51:43;16.47;;;14.87;;
53040;SDS011;39326;42.650;23.248;2023-03-23T01:54:17;18.07;;;16.20;;
53040;SDS011;39326;42.650;23.248;2023-03-23T01:56:54;16.07;;;14.47;;
53040;SDS011;39326;42.650;23.248;2023-03-23T01:59:24;16.63;;;15.10;;
53040;SDS011;39326;42.650;23.248;2023-03-23T02:01:51;16.10;;;14.60;;
53040;SDS011;39326;42.650;23.248;2023-03-23T02:04:18;16.10;;;14.43;;
53040;SDS011;39326;42.650;23.248;2023-03-23T02:06:45;13.70;;;12.37;;
53040;SDS011;39326;42.650;23.248;2023-03-23T02:09:11;12.47;;;11.30;;
53040;SDS011;39326;42.650;23.248;2023-03-23T02:11:42;12.57;;;11.37;;
53040;SDS011;39326;42.650;23.248;2023-03-23T02:14:09;13.27;;;11.97;;
53040;SDS011;39326;42.650;23.248;2023-03-23T02:16:40;14.03;;;12.63;;
53040;SDS011;39326;42.650;23.248;2023-03-23T02:21:55;13.53;;;12.23;;
53040;SDS011;39326;42.650;23.248;2023-03-23T02:27:04;13.50;;;12.30;;
53040;SDS011;39326;42.650;23.248;2023-03-23T02:34:58;12.97;;;11.60;;
53040;SDS011;39326;42.650;23.248;2023-03-23T02:37:29;13.53;;;12.33;;
53040;SDS011;39326;42.650;23.248;2023-03-23T02:40:02;14.10;;;12.70;;
53040;SDS011;39326;42.650;23.248;2023-03-23T02:42:36;14.70;;;13.30;;
53040;SDS011;39326;42.650;23.248;2023-03-23T02:45:07;12.77;;;11.67;;
53040;SDS011;39326;42.650;23.248;2023-03-23T02:47:35;12.10;;;10.90;;
53040;SDS011;39326;42.650;23.248;2023-03-23T02:50:03;12.83;;;11.63;;
53040;SDS011;39326;42.650;23.248;2023-03-23T02:52:32;12.67;;;11.37;;
53040;SDS011;39326;42.650;23.248;2023-03-23T02:54:59;13.40;;;12.20;;
53040;SDS011;39326;42.650;23.248;2023-03-23T02:57:27;11.83;;;10.67;;
53040;SDS011;39326;42.650;23.248;2023-03-23T02:59:53;11.57;;;10.57;;
53040;SDS011;39326;42.650;23.248;2023-03-23T03:09:59;10.67;;;9.57;;
53040;SDS011;39326;42.650;23.248;2023-03-23T03:12:36;10.20;;;9.27;;
53040;SDS011;39326;42.650;23.248;2023-03-23T03:18:13;10.17;;;9.27;;
53040;SDS011;39326;42.650;23.248;2023-03-23T03:20:44;9.90;;;9.07;;
53040;SDS011;39326;42.650;23.248;2023-03-23T03:23:13;9.63;;;8.80;;
53040;SDS011;39326;42.650;23.248;2023-03-23T03:25:41;9.73;;;8.83;;
53040;SDS011;39326;42.650;23.248;2023-03-23T03:28:12;9.77;;;8.80;;
53040;SDS011;39326;42.650;23.248;2023-03-23T03:30:40;10.73;;;9.63;;
53040;SDS011;39326;42.650;23.248;2023-03-23T03:33:10;9.50;;;8.60;;
53040;SDS011;39326;42.650;23.248;2023-03-23T03:35:37;8.90;;;8.10;;
53040;SDS011;39326;42.650;23.248;2023-03-23T03:38:06;9.73;;;8.83;;
53040;SDS011;39326;42.650;23.248;2023-03-23T03:40:33;8.83;;;8.00;;
53040;SDS011;39326;42.650;23.248;2023-03-23T03:42:59;8.90;;;7.80;;
53040;SDS011;39326;42.650;23.248;2023-03-23T03:45:24;9.47;;;8.57;;
53040;SDS011;39326;42.650;23.248;2023-03-23T03:47:50;8.33;;;7.53;;
53040;SDS011;39326;42.650;23.248;2023-03-23T03:50:15;10.57;;;9.43;;
53040;SDS011;39326;42.650;23.248;2023-03-23T03:52:41;9.57;;;8.67;;
53040;SDS011;39326;42.650;23.248;2023-03-23T03:55:07;8.90;;;8.10;;
53040;SDS011;39326;42.650;23.248;2023-03-23T03:57:34;9.30;;;8.30;;
53040;SDS011;39326;42.650;23.248;2023-03-23T03:59:59;9.10;;;8.30;;
53040;SDS011;39326;42.650;23.248;2023-03-23T04:02:25;11.33;;;10.23;;
53040;SDS011;39326;42.650;23.248;2023-03-23T04:04:51;13.37;;;12.07;;
53040;SDS011;39326;42.650;23.248;2023-03-23T04:07:19;13.90;;;12.50;;
53040;SDS011;39326;42.650;23.248;2023-03-23T04:09:46;11.07;;;9.97;;
53040;SDS011;39326;42.650;23.248;2023-03-23T04:12:15;10.17;;;9.23;;
53040;SDS011;39326;42.650;23.248;2023-03-23T04:14:41;9.67;;;8.57;;
53040;SDS011;39326;42.650;23.248;2023-03-23T04:17:06;9.77;;;8.90;;
53040;SDS011;39326;42.650;23.248;2023-03-23T04:19:34;9.80;;;8.83;;
53040;SDS011;39326;42.650;23.248;2023-03-23T04:22:01;10.40;;;8.63;;
53040;SDS011;39326;42.650;23.248;2023-03-23T04:24:27;10.40;;;9.37;;
53040;SDS011;39326;42.650;23.248;2023-03-23T04:26:56;10.70;;;9.60;;
53040;SDS011;39326;42.650;23.248;2023-03-23T04:29:21;9.87;;;8.90;;
53040;SDS011;39326;42.650;23.248;2023-03-23T04:31:47;10.47;;;9.43;;
53040;SDS011;39326;42.650;23.248;2023-03-23T04:34:15;10.67;;;9.53;;
53040;SDS011;39326;42.650;23.248;2023-03-23T04:36:41;10.13;;;9.23;;
53040;SDS011;39326;42.650;23.248;2023-03-23T04:39:07;9.63;;;8.73;;
53040;SDS011;39326;42.650;23.248;2023-03-23T04:41:37;9.57;;;8.67;;
53040;SDS011;39326;42.650;23.248;2023-03-23T04:44:03;9.70;;;8.70;;
53040;SDS011;39326;42.650;23.248;2023-03-23T04:46:29;9.17;;;8.23;;
53040;SDS011;39326;42.650;23.248;2023-03-23T04:48:55;10.13;;;9.13;;
53040;SDS011;39326;42.650;23.248;2023-03-23T04:51:23;10.00;;;8.87;;
53040;SDS011;39326;42.650;23.248;2023-03-23T04:53:51;10.60;;;9.53;;
53040;SDS011;39326;42.650;23.248;2023-03-23T04:56:16;9.67;;;8.83;;
53040;SDS011;39326;42.650;23.248;2023-03-23T04:58:43;10.27;;;9.27;;
53040;SDS011;39326;42.650;23.248;2023-03-23T05:01:10;10.07;;;9.07;;
53040;SDS011;39326;42.650;23.248;2023-03-23T05:03:38;11.03;;;9.97;;
53040;SDS011;39326;42.650;23.248;2023-03-23T05:06:04;10.40;;;9.37;;
53040;SDS011;39326;42.650;23.248;2023-03-23T05:08:31;15.03;;;13.53;;
53040;SDS011;39326;42.650;23.248;2023-03-23T05:10:58;12.60;;;11.40;;
53040;SDS011;39326;42.650;23.248;2023-03-23T05:13:25;12.23;;;10.93;;
53040;SDS011;39326;42.650;23.248;2023-03-23T05:15:51;16.33;;;14.77;;
53040;SDS011;39326;42.650;23.248;2023-03-23T05:18:17;14.60;;;12.77;;
53040;SDS011;39326;42.650;23.248;2023-03-23T05:20:42;12.53;;;11.43;;
53040;SDS011;39326;42.650;23.248;2023-03-23T05:23:11;14.70;;;13.20;;
53040;SDS011;39326;42.650;23.248;2023-03-23T05:25:37;16.17;;;14.57;;
53040;SDS011;39326;42.650;23.248;2023-03-23T05:28:09;15.93;;;14.30;;
53040;SDS011;39326;42.650;23.248;2023-03-23T05:30:36;19.30;;;17.40;;
53040;SDS011;39326;42.650;23.248;2023-03-23T05:33:03;21.20;;;19.20;;
53040;SDS011;39326;42.650;23.248;2023-03-23T05:35:29;19.80;;;17.90;;
53040;SDS011;39326;42.650;23.248;2023-03-23T05:37:55;19.90;;;17.97;;
53040;SDS011;39326;42.650;23.248;2023-03-23T05:40:22;19.67;;;17.87;;
53040;SDS011;39326;42.650;23.248;2023-03-23T05:42:51;21.37;;;19.13;;
53040;SDS011;39326;42.650;23.248;2023-03-23T05:45:17;508.37;;;50.83;;
53040;SDS011;39326;42.650;23.248;2023-03-23T05:47:43;34.23;;;29.77;;
53040;SDS011;39326;42.650;23.248;2023-03-23T05:50:10;30.63;;;27.50;;
53040;SDS011;39326;42.650;23.248;2023-03-23T05:52:37;29.80;;;26.60;;
53040;SDS011;39326;42.650;23.248;2023-03-23T05:55:03;31.70;;;28.23;;
53040;SDS011;39326;42.650;23.248;2023-03-23T05:57:30;30.33;;;26.43;;
53040;SDS011;39326;42.650;23.248;2023-03-23T05:59:56;36.40;;;31.40;;
53040;SDS011;39326;42.650;23.248;2023-03-23T06:02:22;36.10;;;32.37;;
53040;SDS011;39326;42.650;23.248;2023-03-23T06:04:49;33.23;;;29.70;;
53040;SDS011;39326;42.650;23.248;2023-03-23T06:07:15;34.73;;;30.87;;
53040;SDS011;39326;42.650;23.248;2023-03-23T06:09:41;30.67;;;26.97;;
53040;SDS011;39326;42.650;23.248;2023-03-23T06:12:07;32.47;;;28.63;;
53040;SDS011;39326;42.650;23.248;2023-03-23T06:14:34;30.70;;;27.40;;
53040;SDS011;39326;42.650;23.248;2023-03-23T06:17:01;33.50;;;30.00;;
53040;SDS011;39326;42.650;23.248;2023-03-23T06:19:27;28.80;;;25.67;;
53040;SDS011;39326;42.650;23.248;2023-03-23T06:21:53;26.27;;;22.23;;
53040;SDS011;39326;42.650;23.248;2023-03-23T06:24:20;23.77;;;21.27;;
53040;SDS011;39326;42.650;23.248;2023-03-23T06:26:46;25.33;;;22.83;;
53040;SDS011;39326;42.650;23.248;2023-03-23T06:29:12;25.80;;;23.10;;
53040;SDS011;39326;42.650;23.248;2023-03-23T06:31:42;23.03;;;20.73;;
53040;SDS011;39326;42.650;23.248;2023-03-23T06:34:10;24.50;;;22.07;;
53040;SDS011;39326;42.650;23.248;2023-03-23T06:36:36;21.27;;;19.17;;
53040;SDS011;39326;42.650;23.248;2023-03-23T06:39:03;23.23;;;21.03;;
53040;SDS011;39326;42.650;23.248;2023-03-23T06:41:30;25.70;;;23.20;;
53040;SDS011;39326;42.650;23.248;2023-03-23T06:43:56;22.00;;;19.80;;
53040;SDS011;39326;42.650;23.248;2023-03-23T06:46:21;20.07;;;18.17;;
53040;SDS011;39326;42.650;23.248;2023-03-23T06:48:47;24.53;;;21.97;;
53040;SDS011;39326;42.650;23.248;2023-03-23T06:51:14;22.77;;;18.93;;
53040;SDS011;39326;42.650;23.248;2023-03-23T06:53:41;25.47;;;22.87;;
53040;SDS011;39326;42.650;23.248;2023-03-23T06:56:06;25.10;;;22.53;;
53040;SDS011;39326;42.650;23.248;2023-03-23T06:58:32;24.57;;;22.00;;
53040;SDS011;39326;42.650;23.248;2023-03-23T07:00:58;21.17;;;19.07;;
53040;SDS011;39326;42.650;23.248;2023-03-23T07:03:23;24.00;;;21.70;;
53040;SDS011;39326;42.650;23.248;2023-03-23T07:05:50;25.97;;;23.33;;
53040;SDS011;39326;42.650;23.248;2023-03-23T07:08:16;29.03;;;26.13;;
53040;SDS011;39326;42.650;23.248;2023-03-23T07:10:41;28.73;;;25.93;;
53040;SDS011;39326;42.650;23.248;2023-03-23T07:15:35;28.03;;;25.23;;
53040;SDS011;39326;42.650;23.248;2023-03-23T07:18:02;24.10;;;21.90;;
53040;SDS011;39326;42.650;23.248;2023-03-23T07:20:27;25.37;;;22.93;;
53040;SDS011;39326;42.650;23.248;2023-03-23T07:22:53;24.60;;;22.13;;
53040;SDS011;39326;42.650;23.248;2023-03-23T07:25:19;25.43;;;22.83;;
53040;SDS011;39326;42.650;23.248;2023-03-23T07:27:45;23.53;;;21.00;;
53040;SDS011;39326;42.650;23.248;2023-03-23T07:30:11;24.70;;;22.10;;
53040;SDS011;39326;42.650;23.248;2023-03-23T07:32:37;25.30;;;22.87;;
53040;SDS011;39326;42.650;23.248;2023-03-23T07:35:03;26.33;;;23.63;;
53040;SDS011;39326;42.650;23.248;2023-03-23T07:37:29;26.80;;;24.13;;
53040;SDS011;39326;42.650;23.248;2023-03-23T07:39:54;26.13;;;23.53;;
53040;SDS011;39326;42.650;23.248;2023-03-23T07:42:20;25.43;;;22.33;;
53040;SDS011;39326;42.650;23.248;2023-03-23T07:44:46;26.27;;;23.47;;
53040;SDS011;39326;42.650;23.248;2023-03-23T07:47:11;22.87;;;20.47;;
53040;SDS011;39326;42.650;23.248;2023-03-23T07:49:37;20.17;;;18.27;;
53040;SDS011;39326;42.650;23.248;2023-03-23T07:52:02;21.70;;;19.70;;
53040;SDS011;39326;42.650;23.248;2023-03-23T07:54:28;21.33;;;19.33;;
53040;SDS011;39326;42.650;23.248;2023-03-23T07:56:54;20.57;;;18.57;;
53040;SDS011;39326;42.650;23.248;2023-03-23T07:59:20;19.63;;;17.67;;
53040;SDS011;39326;42.650;23.248;2023-03-23T08:01:46;21.17;;;19.27;;
53040;SDS011;39326;42.650;23.248;2023-03-23T08:04:11;19.30;;;17.27;;
53040;SDS011;39326;42.650;23.248;2023-03-23T08:06:38;18.40;;;16.73;;
53040;SDS011;39326;42.650;23.248;2023-03-23T08:09:04;21.03;;;19.07;;
53040;SDS011;39326;42.650;23.248;2023-03-23T08:11:34;21.50;;;19.30;;
53040;SDS011;39326;42.650;23.248;2023-03-23T08:14:00;21.70;;;19.77;;
53040;SDS011;39326;42.650;23.248;2023-03-23T08:16:25;20.90;;;18.97;;
53040;SDS011;39326;42.650;23.248;2023-03-23T08:18:51;20.90;;;18.87;;
53040;SDS011;39326;42.650;23.248;2023-03-23T08:21:16;21.43;;;19.17;;
53040;SDS011;39326;42.650;23.248;2023-03-23T08:23:42;20.83;;;18.83;;
53040;SDS011;39326;42.650;23.248;2023-03-23T08:26:08;21.10;;;18.93;;
53040;SDS011;39326;42.650;23.248;2023-03-23T08:28:35;20.57;;;18.40;;
53040;SDS011;39326;42.650;23.248;2023-03-23T08:31:07;20.50;;;18.60;;
53040;SDS011;39326;42.650;23.248;2023-03-23T08:33:35;18.77;;;16.77;;
53040;SDS011;39326;42.650;23.248;2023-03-23T08:36:01;15.20;;;13.90;;
53040;SDS011;39326;42.650;23.248;2023-03-23T08:38:28;17.13;;;14.37;;
53040;SDS011;39326;42.650;23.248;2023-03-23T08:40:57;16.20;;;14.37;;
53040;SDS011;39326;42.650;23.248;2023-03-23T08:43:24;13.63;;;12.17;;
53040;SDS011;39326;42.650;23.248;2023-03-23T08:45:50;9.47;;;8.67;;
53040;SDS011;39326;42.650;23.248;2023-03-23T08:48:16;11.43;;;10.23;;
53040;SDS011;39326;42.650;23.248;2023-03-23T08:50:43;19.30;;;10.93;;
53040;SDS011;39326;42.650;23.248;2023-03-23T08:53:08;10.90;;;10.00;;
53040;SDS011;39326;42.650;23.248;2023-03-23T08:55:34;10.40;;;9.60;;
53040;SDS011;39326;42.650;23.248;2023-03-23T08:58:00;49.93;;;13.80;;
53040;SDS011;39326;42.650;23.248;2023-03-23T09:00:26;7.43;;;6.70;;
53040;SDS011;39326;42.650;23.248;2023-03-23T09:02:53;8.00;;;7.20;;
53040;SDS011;39326;42.650;23.248;2023-03-23T09:05:19;7.47;;;6.87;;
53040;SDS011;39326;42.650;23.248;2023-03-23T09:07:49;8.13;;;7.43;;
53040;SDS011;39326;42.650;23.248;2023-03-23T09:10:16;8.77;;;7.87;;
53040;SDS011;39326;42.650;23.248;2023-03-23T09:12:43;10.33;;;9.43;;
53040;SDS011;39326;42.650;23.248;2023-03-23T09:15:11;10.07;;;9.17;;
53040;SDS011;39326;42.650;23.248;2023-03-23T09:17:39;11.10;;;10.20;;
53040;SDS011;39326;42.650;23.248;2023-03-23T09:20:10;9.27;;;8.37;;
53040;SDS011;39326;42.650;23.248;2023-03-23T09:22:38;8.33;;;7.57;;
53040;SDS011;39326;42.650;23.248;2023-03-23T09:25:06;8.60;;;7.80;;
53040;SDS011;39326;42.650;23.248;2023-03-23T09:27:33;9.13;;;8.33;;
53040;SDS011;39326;42.650;23.248;2023-03-23T09:30:02;9.40;;;8.60;;
53040;SDS011;39326;42.650;23.248;2023-03-23T09:32:32;8.87;;;7.97;;
53040;SDS011;39326;42.650;23.248;2023-03-23T09:34:59;8.73;;;7.93;;
53040;SDS011;39326;42.650;23.248;2023-03-23T09:37:25;9.07;;;7.77;;
53040;SDS011;39326;42.650;23.248;2023-03-23T09:39:51;8.57;;;7.80;;
53040;SDS011;39326;42.650;23.248;2023-03-23T09:45:01;8.80;;;8.03;;
53040;SDS011;39326;42.650;23.248;2023-03-23T09:47:43;21.53;;;10.33;;
53040;SDS011;39326;42.650;23.248;2023-03-23T09:50:14;14.30;;;8.33;;
53040;SDS011;39326;42.650;23.248;2023-03-23T09:52:51;9.00;;;8.20;;
53040;SDS011;39326;42.650;23.248;2023-03-23T09:55:21;8.50;;;7.80;;
53040;SDS011;39326;42.650;23.248;2023-03-23T10:00:33;9.87;;;8.93;;
53040;SDS011;39326;42.650;23.248;2023-03-23T10:05:34;11.33;;;10.23;;
53040;SDS011;39326;42.650;23.248;2023-03-23T10:08:08;9.57;;;8.73;;
53040;SDS011;39326;42.650;23.248;2023-03-23T10:10:45;9.97;;;9.07;;
53040;SDS011;39326;42.650;23.248;2023-03-23T10:13:15;9.20;;;8.40;;
53040;SDS011;39326;42.650;23.248;2023-03-23T10:16:01;9.63;;;8.85;;
53040;SDS011;39326;42.650;23.248;2023-03-23T10:18:41;9.15;;;8.35;;
53040;SDS011;39326;42.650;23.248;2023-03-23T10:21:15;8.07;;;7.43;;
53040;SDS011;39326;42.650;23.248;2023-03-23T10:23:52;10.80;;;8.47;;
53040;SDS011;39326;42.650;23.248;2023-03-23T10:29:12;8.55;;;7.82;;
53040;SDS011;39326;42.650;23.248;2023-03-23T10:34:45;8.27;;;7.60;;
53040;SDS011;39326;42.650;23.248;2023-03-23T10:37:18;9.57;;;8.68;;
53040;SDS011;39326;42.650;23.248;2023-03-23T10:39:46;7.07;;;6.47;;
53040;SDS011;39326;42.650;23.248;2023-03-23T10:45:22;8.10;;;7.38;;
53040;SDS011;39326;42.650;23.248;2023-03-23T10:50:32;8.52;;;7.72;;
53040;SDS011;39326;42.650;23.248;2023-03-23T10:53:03;8.77;;;7.97;;
53040;SDS011;39326;42.650;23.248;2023-03-23T10:55:40;9.27;;;8.38;;
53040;SDS011;39326;42.650;23.248;2023-03-23T10:58:09;7.47;;;6.88;;
53040;SDS011;39326;42.650;23.248;2023-03-23T11:00:41;7.90;;;7.20;;
53040;SDS011;39326;42.650;23.248;2023-03-23T11:08:13;7.78;;;7.07;;
53040;SDS011;39326;42.650;23.248;2023-03-23T11:13:38;7.93;;;7.32;;
53040;SDS011;39326;42.650;23.248;2023-03-23T11:16:08;8.02;;;7.30;;
53040;SDS011;39326;42.650;23.248;2023-03-23T11:21:05;7.60;;;6.90;;
53040;SDS011;39326;42.650;23.248;2023-03-23T11:23:37;7.78;;;7.00;;
53040;SDS011;39326;42.650;23.248;2023-03-23T11:28:45;9.13;;;8.25;;
53040;SDS011;39326;42.650;23.248;2023-03-23T11:31:16;8.43;;;7.63;;
53040;SDS011;39326;42.650;23.248;2023-03-23T11:36:38;9.30;;;8.60;;
53040;SDS011;39326;42.650;23.248;2023-03-23T11:41:50;7.72;;;7.13;;
53040;SDS011;39326;42.650;23.248;2023-03-23T11:44:16;8.13;;;7.32;;
53040;SDS011;39326;42.650;23.248;2023-03-23T11:47:01;7.57;;;6.93;;
53040;SDS011;39326;42.650;23.248;2023-03-23T11:49:45;8.73;;;7.85;;
53040;SDS011;39326;42.650;23.248;2023-03-23T11:52:18;7.85;;;7.10;;
53040;SDS011;39326;42.650;23.248;2023-03-23T11:57:48;8.93;;;8.05;;
53040;SDS011;39326;42.650;23.248;2023-03-23T12:06:12;8.25;;;7.63;;
53040;SDS011;39326;42.650;23.248;2023-03-23T12:11:02;8.55;;;7.85;;
53040;SDS011;39326;42.650;23.248;2023-03-23T12:50:42;6.80;;;6.30;;
53040;SDS011;39326;42.650;23.248;2023-03-23T12:58:25;6.82;;;6.32;;
53040;SDS011;39326;42.650;23.248;2023-03-23T13:09:02;6.90;;;6.32;;
53040;SDS011;39326;42.650;23.248;2023-03-23T13:11:34;6.80;;;6.30;;
53040;SDS011;39326;42.650;23.248;2023-03-23T13:20:13;7.13;;;6.43;;
53040;SDS011;39326;42.650;23.248;2023-03-23T13:25:30;7.25;;;6.50;;
53040;SDS011;39326;42.650;23.248;2023-03-23T13:27:59;13.80;;;6.50;;
53040;SDS011;39326;42.650;23.248;2023-03-23T13:30:26;6.72;;;6.07;;
53040;SDS011;39326;42.650;23.248;2023-03-23T13:33:00;6.13;;;5.63;;
53040;SDS011;39326;42.650;23.248;2023-03-23T13:35:28;7.53;;;6.85;;
53040;SDS011;39326;42.650;23.248;2023-03-23T13:38:01;6.40;;;5.90;;
53040;SDS011;39326;42.650;23.248;2023-03-23T13:40:28;6.55;;;5.88;;
53040;SDS011;39326;42.650;23.248;2023-03-23T13:42:57;5.53;;;5.10;;
53040;SDS011;39326;42.650;23.248;2023-03-23T13:45:35;6.05;;;5.55;;
53040;SDS011;39326;42.650;23.248;2023-03-23T13:51:21;6.13;;;5.63;;
53040;SDS011;39326;42.650;23.248;2023-03-23T13:56:07;6.60;;;6.10;;
53040;SDS011;39326;42.650;23.248;2023-03-23T13:58:45;6.22;;;5.72;;
53040;SDS011;39326;42.650;23.248;2023-03-23T14:01:18;6.70;;;6.10;;
53040;SDS011;39326;42.650;23.248;2023-03-23T14:03:58;6.22;;;5.20;;
53040;SDS011;39326;42.650;23.248;2023-03-23T14:06:26;6.07;;;5.22;;
53040;SDS011;39326;42.650;23.248;2023-03-23T14:09:03;7.22;;;6.53;;
53040;SDS011;39326;42.650;23.248;2023-03-23T14:11:49;7.22;;;6.53;;
53040;SDS011;39326;42.650;23.248;2023-03-23T14:14:31;6.57;;;5.97;;
53040;SDS011;39326;42.650;23.248;2023-03-23T14:19:37;6.78;;;6.07;;
53040;SDS011;39326;42.650;23.248;2023-03-23T14:22:04;6.80;;;5.78;;
53040;SDS011;39326;42.650;23.248;2023-03-23T14:24:50;6.68;;;5.72;;
53040;SDS011;39326;42.650;23.248;2023-03-23T14:27:17;5.82;;;5.32;;
53040;SDS011;39326;42.650;23.248;2023-03-23T14:29:45;6.00;;;5.53;;
53040;SDS011;39326;42.650;23.248;2023-03-23T14:32:16;5.90;;;5.40;;
53040;SDS011;39326;42.650;23.248;2023-03-23T14:34:46;5.78;;;5.25;;
53040;SDS011;39326;42.650;23.248;2023-03-23T14:37:13;5.93;;;5.53;;
53040;SDS011;39326;42.650;23.248;2023-03-23T14:39:43;5.85;;;5.35;;
53040;SDS011;39326;42.650;23.248;2023-03-23T14:42:11;5.35;;;4.85;;
53040;SDS011;39326;42.650;23.248;2023-03-23T14:44:39;6.57;;;6.07;;
53040;SDS011;39326;42.650;23.248;2023-03-23T14:47:11;6.45;;;5.90;;
53040;SDS011;39326;42.650;23.248;2023-03-23T14:49:44;6.38;;;5.85;;
53040;SDS011;39326;42.650;23.248;2023-03-23T14:52:11;6.70;;;6.20;;
53040;SDS011;39326;42.650;23.248;2023-03-23T14:54:38;6.10;;;5.32;;
53040;SDS011;39326;42.650;23.248;2023-03-23T14:59:51;6.43;;;5.93;;
53040;SDS011;39326;42.650;23.248;2023-03-23T15:02:38;6.00;;;5.50;;
53040;SDS011;39326;42.650;23.248;2023-03-23T15:05:18;6.57;;;5.97;;
53040;SDS011;39326;42.650;23.248;2023-03-23T15:07:48;5.72;;;5.32;;
53040;SDS011;39326;42.650;23.248;2023-03-23T15:10:19;5.68;;;5.25;;
53040;SDS011;39326;42.650;23.248;2023-03-23T15:12:46;5.75;;;5.35;;
53040;SDS011;39326;42.650;23.248;2023-03-23T15:15:21;6.72;;;5.15;;
53040;SDS011;39326;42.650;23.248;2023-03-23T15:17:50;6.22;;;5.72;;
53040;SDS011;39326;42.650;23.248;2023-03-23T15:20:26;6.32;;;5.82;;
53040;SDS011;39326;42.650;23.248;2023-03-23T15:22:54;5.65;;;5.25;;
53040;SDS011;39326;42.650;23.248;2023-03-23T15:25:22;6.32;;;5.78;;
53040;SDS011;39326;42.650;23.248;2023-03-23T15:27:58;6.63;;;6.13;;
53040;SDS011;39326;42.650;23.248;2023-03-23T15:30:33;6.75;;;6.15;;
53040;SDS011;39326;42.650;23.248;2023-03-23T15:33:06;6.27;;;5.70;;
53040;SDS011;39326;42.650;23.248;2023-03-23T15:35:36;6.70;;;6.20;;
53040;SDS011;39326;42.650;23.248;2023-03-23T15:38:04;6.20;;;5.70;;
53040;SDS011;39326;42.650;23.248;2023-03-23T15:40:36;7.40;;;6.72;;
53040;SDS011;39326;42.650;23.248;2023-03-23T15:43:21;6.73;;;6.03;;
53040;SDS011;39326;42.650;23.248;2023-03-23T15:45:56;6.40;;;5.90;;
53040;SDS011;39326;42.650;23.248;2023-03-23T15:48:44;6.07;;;5.50;;
53040;SDS011;39326;42.650;23.248;2023-03-23T15:51:10;6.28;;;5.78;;
53040;SDS011;39326;42.650;23.248;2023-03-23T15:53:37;6.18;;;5.57;;
53040;SDS011;39326;42.650;23.248;2023-03-23T15:56:04;6.67;;;6.00;;
53040;SDS011;39326;42.650;23.248;2023-03-23T15:58:31;6.47;;;5.88;;
53040;SDS011;39326;42.650;23.248;2023-03-23T16:00:58;6.67;;;6.07;;
53040;SDS011;39326;42.650;23.248;2023-03-23T16:03:28;6.37;;;5.77;;
53040;SDS011;39326;42.650;23.248;2023-03-23T16:06:03;6.13;;;5.63;;
53040;SDS011;39326;42.650;23.248;2023-03-23T16:08:29;5.87;;;5.40;;
53040;SDS011;39326;42.650;23.248;2023-03-23T16:10:55;5.80;;;5.20;;
53040;SDS011;39326;42.650;23.248;2023-03-23T16:13:20;6.00;;;5.40;;
53040;SDS011;39326;42.650;23.248;2023-03-23T16:15:46;4.97;;;4.57;;
53040;SDS011;39326;42.650;23.248;2023-03-23T16:18:16;5.23;;;4.80;;
53040;SDS011;39326;42.650;23.248;2023-03-23T16:20:44;6.23;;;5.27;;
53040;SDS011;39326;42.650;23.248;2023-03-23T16:23:10;5.70;;;5.17;;
53040;SDS011;39326;42.650;23.248;2023-03-23T16:25:35;5.30;;;4.90;;
53040;SDS011;39326;42.650;23.248;2023-03-23T16:28:00;6.93;;;4.87;;
53040;SDS011;39326;42.650;23.248;2023-03-23T16:30:27;5.70;;;4.83;;
53040;SDS011;39326;42.650;23.248;2023-03-23T16:32:56;5.32;;;4.80;;
53040;SDS011;39326;42.650;23.248;2023-03-23T16:35:21;8.77;;;5.20;;
53040;SDS011;39326;42.650;23.248;2023-03-23T16:37:48;5.40;;;4.97;;
53040;SDS011;39326;42.650;23.248;2023-03-23T16:40:16;5.10;;;4.60;;
53040;SDS011;39326;42.650;23.248;2023-03-23T16:42:42;5.73;;;4.83;;
53040;SDS011;39326;42.650;23.248;2023-03-23T16:45:09;5.50;;;5.00;;
53040;SDS011;39326;42.650;23.248;2023-03-23T16:47:35;8.10;;;7.20;;
53040;SDS011;39326;42.650;23.248;2023-03-23T16:50:00;7.67;;;6.90;;
53040;SDS011;39326;42.650;23.248;2023-03-23T16:52:26;8.13;;;6.70;;
53040;SDS011;39326;42.650;23.248;2023-03-23T16:54:52;6.27;;;5.67;;